createdAt,value
2018-08-13T00:01:44.208Z,3.97
2018-08-13T00:04:13.340Z,3.30
2018-08-13T00:06:42.558Z,3.10
2018-08-13T00:09:11.678Z,4.23
2018-08-13T00:11:41.173Z,3.00
2018-08-13T00:14:10.545Z,3.23
2018-08-13T00:16:39.833Z,3.83
2018-08-13T00:19:09.364Z,3.43
2018-08-13T00:21:38.829Z,3.70
2018-08-13T00:24:08.248Z,3.87
2018-08-13T00:26:37.789Z,4.10
2018-08-13T00:29:07.288Z,3.80
2018-08-13T00:31:36.749Z,2.93
2018-08-13T00:34:06.034Z,4.70
2018-08-13T00:36:35.531Z,4.40
2018-08-13T00:39:08.216Z,4.80
2018-08-13T00:41:37.604Z,4.13
2018-08-13T00:44:06.807Z,3.33
2018-08-13T00:46:36.184Z,2.90
2018-08-13T00:49:05.883Z,6.47
2018-08-13T00:51:36.037Z,3.07
2018-08-13T00:54:05.310Z,3.33
2018-08-13T00:56:34.330Z,4.33
2018-08-13T00:59:03.527Z,14.23
2018-08-13T01:01:32.752Z,3.10
2018-08-13T01:04:01.768Z,3.30
2018-08-13T01:06:30.888Z,3.57
2018-08-13T01:09:00.377Z,3.73
2018-08-13T01:11:29.624Z,5.00
2018-08-13T01:13:58.819Z,4.20
2018-08-13T01:16:28.338Z,4.43
2018-08-13T01:18:57.736Z,4.10
2018-08-13T01:21:27.496Z,4.03
2018-08-13T01:23:58.826Z,3.30
2018-08-13T01:26:28.345Z,3.40
2018-08-13T01:28:57.339Z,2.60
2018-08-13T01:31:26.419Z,3.87
2018-08-13T01:33:55.756Z,3.43
2018-08-13T01:36:24.959Z,3.27
2018-08-13T01:38:54.301Z,2.87
2018-08-13T01:41:23.624Z,3.80
2018-08-13T01:43:53.284Z,5.40
2018-08-13T01:46:22.671Z,4.80
2018-08-13T01:48:52.216Z,5.03
2018-08-13T01:51:22.639Z,5.20
2018-08-13T01:53:52.008Z,4.80
2018-08-13T01:56:21.840Z,4.47
2018-08-13T01:58:51.132Z,4.40
2018-08-13T02:01:20.705Z,3.50
2018-08-13T02:03:49.853Z,3.83
2018-08-13T02:06:20.007Z,4.20
2018-08-13T02:08:49.208Z,2.53
2018-08-13T02:11:18.411Z,3.17
2018-08-13T02:13:48.691Z,3.70
2018-08-13T02:16:17.917Z,5.90
2018-08-13T02:18:47.289Z,3.73
2018-08-13T02:21:16.615Z,4.60
2018-08-13T02:23:45.999Z,4.80
2018-08-13T02:26:15.430Z,3.70
2018-08-13T02:28:44.784Z,2.80
2018-08-13T02:31:14.184Z,2.50
2018-08-13T02:33:43.533Z,4.50
2018-08-13T02:36:13.071Z,3.93
2018-08-13T02:38:42.650Z,3.00
2018-08-13T02:41:12.127Z,3.10
2018-08-13T02:43:41.398Z,4.27
2018-08-13T02:46:10.796Z,3.73
2018-08-13T02:48:40.145Z,5.87
2018-08-13T02:51:09.523Z,6.50
2018-08-13T02:53:39.596Z,4.57
2018-08-13T02:56:09.225Z,4.33
2018-08-13T02:58:38.822Z,3.23
2018-08-13T03:01:08.157Z,3.67
2018-08-13T03:03:37.550Z,2.70
2018-08-13T03:06:07.098Z,4.07
2018-08-13T03:08:36.521Z,4.47
2018-08-13T03:11:06.218Z,4.93
2018-08-13T03:13:35.671Z,4.20
2018-08-13T03:16:05.295Z,4.67
2018-08-13T03:18:34.956Z,3.50
2018-08-13T03:21:04.461Z,3.80
2018-08-13T03:23:34.062Z,4.37
2018-08-13T03:26:03.471Z,4.40
2018-08-13T03:28:32.972Z,3.50
2018-08-13T03:31:02.447Z,3.93
2018-08-13T03:33:32.997Z,4.27
2018-08-13T03:36:02.108Z,3.50
2018-08-13T03:38:31.477Z,5.33
2018-08-13T03:41:00.747Z,4.90
2018-08-13T03:43:31.098Z,4.00
2018-08-13T03:46:00.199Z,2.83
2018-08-13T03:48:29.516Z,3.57
2018-08-13T03:50:58.983Z,5.43
2018-08-13T03:53:28.080Z,3.00
2018-08-13T03:55:57.521Z,3.53
2018-08-13T03:58:26.872Z,3.70
2018-08-13T04:00:56.527Z,5.50
2018-08-13T04:03:25.992Z,3.27
2018-08-13T04:05:55.317Z,4.60
2018-08-13T04:08:24.767Z,4.57
2018-08-13T04:10:54.136Z,3.73
2018-08-13T04:13:23.664Z,4.50
2018-08-13T04:15:52.814Z,4.23
2018-08-13T04:18:22.186Z,2.73
2018-08-13T04:20:51.640Z,3.37
2018-08-13T04:23:21.076Z,6.43
2018-08-13T04:25:50.424Z,2.90
2018-08-13T04:28:19.712Z,4.00
2018-08-13T04:30:49.028Z,3.57
2018-08-13T04:33:18.336Z,4.03
2018-08-13T04:35:47.633Z,4.37
2018-08-13T04:38:16.879Z,6.13
2018-08-13T04:40:46.160Z,7.80
2018-08-13T04:43:15.447Z,5.23
2018-08-13T04:45:44.768Z,3.00
2018-08-13T04:48:13.775Z,6.83
2018-08-13T04:50:42.878Z,4.03
2018-08-13T04:53:11.867Z,4.60
2018-08-13T04:55:40.986Z,2.80
2018-08-13T04:58:10.124Z,3.73
2018-08-13T05:00:39.248Z,3.83
2018-08-13T05:03:08.320Z,5.87
2018-08-13T05:05:37.505Z,4.47
2018-08-13T05:08:06.924Z,3.93
2018-08-13T05:10:36.212Z,6.00
2018-08-13T05:13:05.916Z,4.90
2018-08-13T05:15:35.530Z,7.40
2018-08-13T05:18:04.812Z,5.93
2018-08-13T05:20:34.211Z,12.13
2018-08-13T05:23:04.142Z,3.30
2018-08-13T05:25:33.485Z,5.30
2018-08-13T05:28:02.808Z,5.30
2018-08-13T05:30:32.392Z,4.60
2018-08-13T05:33:01.585Z,9.00
2018-08-13T05:35:30.992Z,7.80
2018-08-13T05:38:00.396Z,10.13
2018-08-13T05:40:29.980Z,4.90
2018-08-13T05:42:59.524Z,4.23
2018-08-13T05:45:29.363Z,4.83
2018-08-13T05:47:58.775Z,4.50
2018-08-13T05:50:28.169Z,3.43
2018-08-13T05:52:58.384Z,4.10
2018-08-13T05:55:28.727Z,3.53
2018-08-13T05:57:57.811Z,3.53
2018-08-13T06:00:28.618Z,4.47
2018-08-13T06:02:58.035Z,4.83
2018-08-13T06:05:28.434Z,3.00
2018-08-13T06:07:58.333Z,2.90
2018-08-13T06:10:27.327Z,4.10
2018-08-13T06:12:56.434Z,6.70
2018-08-13T06:15:25.632Z,3.77
2018-08-13T06:17:54.796Z,5.47
2018-08-13T06:20:23.873Z,3.00
2018-08-13T06:22:53.126Z,3.37
2018-08-13T06:25:22.367Z,5.67
2018-08-13T06:27:51.424Z,4.10
2018-08-13T06:30:20.660Z,5.50
2018-08-13T06:32:50.371Z,3.23
2018-08-13T06:35:19.636Z,5.67
2018-08-13T06:37:49.415Z,7.23
2018-08-13T06:40:18.628Z,4.23
2018-08-13T06:42:47.726Z,4.43
2018-08-13T06:45:16.936Z,6.70
2018-08-13T06:47:46.420Z,9.60
2018-08-13T06:50:15.843Z,5.20
2018-08-13T06:52:45.847Z,3.43
2018-08-13T06:55:15.163Z,8.23
2018-08-13T06:57:44.499Z,6.00
2018-08-13T07:00:14.579Z,8.13
2018-08-13T07:02:43.865Z,7.43
2018-08-13T07:05:12.988Z,9.10
2018-08-13T07:07:42.261Z,4.67
2018-08-13T07:10:13.995Z,5.07
2018-08-13T07:12:44.371Z,5.13
2018-08-13T07:15:14.289Z,5.13
2018-08-13T07:17:43.316Z,7.40
2018-08-13T07:20:16.169Z,6.00
2018-08-13T07:22:45.828Z,7.33
2018-08-13T07:25:15.012Z,6.17
2018-08-13T07:27:44.370Z,5.50
2018-08-13T07:30:14.645Z,4.30
2018-08-13T07:32:44.456Z,5.43
2018-08-13T07:35:14.064Z,7.63
2018-08-13T07:37:43.580Z,4.83
2018-08-13T07:40:14.918Z,5.57
2018-08-13T07:42:44.303Z,3.87
2018-08-13T07:45:13.427Z,4.73
2018-08-13T07:47:42.803Z,4.97
2018-08-13T07:50:13.479Z,4.63
2018-08-13T07:52:42.843Z,4.40
2018-08-13T08:08:11.573Z,3.13
2018-08-13T08:10:40.939Z,4.77
2018-08-13T08:13:10.266Z,5.13
2018-08-13T08:15:39.692Z,5.43
2018-08-13T08:18:08.917Z,4.40
2018-08-13T08:33:37.622Z,5.37
2018-08-13T08:36:07.507Z,5.63
2018-08-13T08:38:37.048Z,4.97
2018-08-13T08:41:06.254Z,4.93
2018-08-13T08:43:35.256Z,3.47
2018-08-13T08:46:04.338Z,9.00
2018-08-13T08:48:33.570Z,7.47
2018-08-13T08:51:02.788Z,5.10
2018-08-13T08:53:32.020Z,12.30
2018-08-13T08:56:01.037Z,4.70
2018-08-13T08:58:30.589Z,6.80
2018-08-13T09:01:03.694Z,5.10
2018-08-13T09:03:33.696Z,7.20
2018-08-13T09:06:03.128Z,6.90
2018-08-13T09:08:33.133Z,4.50
2018-08-13T09:11:02.625Z,5.63
2018-08-13T09:13:32.134Z,5.00
2018-08-13T09:16:01.593Z,7.13
2018-08-13T09:18:42.228Z,5.13
2018-08-13T09:21:22.539Z,5.33
2018-08-13T09:24:02.917Z,5.63
2018-08-13T09:27:45.890Z,4.37
2018-08-13T09:30:26.392Z,4.33
2018-08-13T09:34:09.306Z,8.07
2018-08-13T09:36:38.538Z,4.87
2018-08-13T09:39:09.229Z,7.20
2018-08-13T09:41:38.214Z,4.37
2018-08-13T09:44:07.580Z,4.90
2018-08-13T09:46:36.641Z,4.50
2018-08-13T09:49:05.957Z,5.57
2018-08-13T09:51:35.932Z,6.93
2018-08-13T09:54:05.011Z,8.40
2018-08-13T09:56:34.467Z,5.63
2018-08-13T09:59:04.079Z,6.80
2018-08-13T10:01:33.384Z,4.60
2018-08-13T10:04:02.971Z,4.60
2018-08-13T10:06:34.274Z,5.43
2018-08-13T10:09:03.817Z,4.97
2018-08-13T10:11:32.827Z,3.13
2018-08-13T10:14:01.885Z,3.20
2018-08-13T10:16:31.055Z,3.60
2018-08-13T10:19:00.124Z,3.30
2018-08-13T10:21:29.111Z,4.10
2018-08-13T10:23:58.312Z,6.93
2018-08-13T10:39:27.509Z,5.60
2018-08-13T10:41:56.769Z,6.27
2018-08-13T10:44:30.132Z,5.90
2018-08-13T10:46:59.140Z,3.03
2018-08-13T10:49:28.244Z,4.60
2018-08-13T10:51:57.217Z,2.60
2018-08-13T10:54:26.545Z,3.50
2018-08-13T10:56:55.805Z,2.13
2018-08-13T10:59:25.021Z,2.73
2018-08-13T11:01:54.680Z,2.00
2018-08-13T11:04:24.395Z,5.03
2018-08-13T11:06:53.918Z,5.23
2018-08-13T11:09:23.120Z,3.00
2018-08-13T11:11:52.561Z,2.70
2018-08-13T11:14:21.997Z,3.73
2018-08-13T11:16:51.432Z,2.93
2018-08-13T11:19:20.929Z,2.93
2018-08-13T11:21:50.479Z,1.90
2018-08-13T11:24:20.085Z,5.03
2018-08-13T11:26:49.668Z,1.77
2018-08-13T11:29:19.104Z,1.70
2018-08-13T11:31:48.504Z,1.97
2018-08-13T11:34:18.064Z,2.20
2018-08-13T11:36:49.769Z,3.23
2018-08-13T11:39:18.760Z,3.90
2018-08-13T11:41:47.723Z,4.63
2018-08-13T11:44:16.861Z,2.20
2018-08-13T11:46:46.112Z,2.30
2018-08-13T11:49:15.377Z,1.73
2018-08-13T11:51:44.995Z,2.47
2018-08-13T11:54:14.355Z,3.40
2018-08-13T11:56:43.993Z,3.27
2018-08-13T11:59:13.341Z,2.40
2018-08-13T12:01:42.491Z,5.17
2018-08-13T12:04:11.763Z,2.87
2018-08-13T12:06:41.210Z,5.27
2018-08-13T12:09:12.589Z,3.13
2018-08-13T12:11:41.781Z,2.70
2018-08-13T12:14:11.196Z,5.17
2018-08-13T12:29:40.070Z,2.93
2018-08-13T12:32:09.281Z,4.73
2018-08-13T12:34:38.766Z,2.73
2018-08-13T12:37:08.066Z,2.83
2018-08-13T12:39:38.475Z,2.70
2018-08-13T12:42:08.624Z,4.40
2018-08-13T12:44:38.349Z,3.07
2018-08-13T12:47:08.275Z,3.10
2018-08-13T12:49:37.420Z,5.13
2018-08-13T12:52:06.982Z,2.80
2018-08-13T12:54:36.297Z,2.90
2018-08-13T12:57:05.903Z,3.30
2018-08-13T12:59:35.266Z,2.63
2018-08-13T13:02:04.731Z,2.60
2018-08-13T13:04:33.919Z,4.63
2018-08-13T13:07:03.103Z,3.27
2018-08-13T13:09:32.437Z,2.90
2018-08-13T13:12:01.789Z,4.43
2018-08-13T13:14:30.862Z,3.00
2018-08-13T13:17:00.081Z,2.87
2018-08-13T13:19:29.332Z,3.00
2018-08-13T13:21:58.428Z,4.30
2018-08-13T13:24:27.480Z,4.40
2018-08-13T13:26:57.658Z,3.30
2018-08-13T13:29:26.709Z,4.80
2018-08-13T13:31:55.744Z,2.87
2018-08-13T13:34:24.819Z,3.50
2018-08-13T13:36:53.812Z,3.77
2018-08-13T13:39:22.902Z,3.60
2018-08-13T13:41:52.138Z,4.30
2018-08-13T13:44:21.344Z,3.37
2018-08-13T13:46:50.542Z,3.73
2018-08-13T13:49:19.752Z,4.77
2018-08-13T13:51:49.188Z,4.43
2018-08-13T13:54:18.564Z,5.00
2018-08-13T13:56:47.817Z,5.90
2018-08-13T13:59:17.149Z,6.60
2018-08-13T14:01:46.581Z,7.00
2018-08-13T14:04:15.813Z,8.00
2018-08-13T14:06:45.225Z,8.00
2018-08-13T14:09:14.668Z,8.50
2018-08-13T14:11:44.160Z,8.10
2018-08-13T14:14:13.627Z,10.10
2018-08-13T14:16:43.081Z,9.37
2018-08-13T14:19:12.564Z,15.50
2018-08-13T14:21:42.103Z,12.07
2018-08-13T14:24:11.454Z,11.87
2018-08-13T14:26:40.797Z,10.33
2018-08-13T14:29:10.290Z,14.37
2018-08-13T14:31:39.612Z,8.80
2018-08-13T14:34:08.916Z,9.20
2018-08-13T14:36:39.225Z,6.37
2018-08-13T14:39:10.953Z,5.77
2018-08-13T14:41:40.013Z,4.90
2018-08-13T14:44:09.126Z,4.40
2018-08-13T14:46:38.613Z,4.27
2018-08-13T14:49:07.823Z,3.30
2018-08-13T14:51:37.002Z,3.43
2018-08-13T14:54:06.379Z,3.60
2018-08-13T14:56:35.552Z,5.23
2018-08-13T14:59:05.392Z,3.90
2018-08-13T15:14:34.299Z,3.90
2018-08-13T15:17:03.679Z,8.73
2018-08-13T15:19:33.281Z,6.30
2018-08-13T15:22:02.298Z,5.07
2018-08-13T15:24:31.737Z,7.97
2018-08-13T15:27:01.867Z,4.97
2018-08-13T15:29:32.237Z,4.80
2018-08-13T15:32:01.447Z,3.30
2018-08-13T15:34:30.756Z,4.43
2018-08-13T15:36:59.998Z,10.10
2018-08-13T15:39:29.157Z,5.00
2018-08-13T15:41:58.472Z,4.90
2018-08-13T15:44:29.445Z,4.80
2018-08-13T15:47:00.284Z,3.73
2018-08-13T15:49:29.629Z,4.30
2018-08-13T15:51:59.700Z,3.57
2018-08-13T15:54:31.018Z,3.23
2018-08-13T15:57:02.334Z,3.60
2018-08-13T15:59:36.250Z,4.77
2018-08-13T16:02:16.465Z,4.03
2018-08-13T16:04:52.052Z,4.03
2018-08-13T16:07:23.704Z,4.23
2018-08-13T16:09:54.097Z,6.97
2018-08-13T16:12:23.942Z,4.23
2018-08-13T16:14:53.416Z,5.03
2018-08-13T16:17:23.405Z,5.00
2018-08-13T16:20:04.741Z,5.23
2018-08-13T16:22:39.102Z,6.67
2018-08-13T16:25:11.160Z,8.30
2018-08-13T16:27:41.713Z,6.80
2018-08-13T16:30:23.986Z,6.67
2018-08-13T16:32:53.959Z,7.50
2018-08-13T16:35:24.777Z,9.80
2018-08-13T16:37:57.076Z,6.77
2018-08-13T16:40:28.027Z,5.97
2018-08-13T16:42:58.001Z,6.10
2018-08-13T16:45:28.160Z,10.07
2018-08-13T16:48:01.596Z,7.70
2018-08-13T16:50:33.987Z,7.17
2018-08-13T16:53:08.955Z,7.40
2018-08-13T16:55:39.426Z,9.13
2018-08-13T16:58:11.319Z,10.20
2018-08-13T17:00:43.536Z,12.60
2018-08-13T17:03:14.059Z,5.97
2018-08-13T17:05:47.108Z,7.30
2018-08-13T17:08:16.820Z,8.10
2018-08-13T17:10:47.166Z,14.73
2018-08-13T17:13:16.961Z,6.57
2018-08-13T17:15:46.313Z,6.00
2018-08-13T17:18:15.464Z,9.63
2018-08-13T17:20:45.053Z,7.70
2018-08-13T17:23:14.712Z,6.23
2018-08-13T17:25:45.231Z,7.10
2018-08-13T17:28:14.794Z,9.10
2018-08-13T17:30:45.923Z,7.77
2018-08-13T17:33:16.273Z,7.90
2018-08-13T17:35:47.883Z,9.20
2018-08-13T17:38:17.465Z,10.03
2018-08-13T17:40:46.795Z,8.80
2018-08-13T17:43:16.444Z,8.80
2018-08-13T17:45:49.691Z,9.37
2018-08-13T17:48:19.974Z,15.33
2018-08-13T17:50:51.329Z,9.70
2018-08-13T17:53:25.485Z,10.63
2018-08-13T17:55:58.487Z,8.33
2018-08-13T17:58:31.049Z,10.23
2018-08-13T18:01:02.424Z,10.23
2018-08-13T18:03:32.156Z,9.10
2018-08-13T18:06:01.474Z,9.60
2018-08-13T18:08:31.082Z,9.10
2018-08-13T18:11:00.388Z,12.57
2018-08-13T18:13:29.890Z,12.23
2018-08-13T18:15:59.132Z,9.90
2018-08-13T18:18:28.725Z,16.37
2018-08-13T18:20:58.081Z,15.57
2018-08-13T18:23:27.477Z,15.77
2018-08-13T18:25:56.754Z,11.73
2018-08-13T18:28:28.373Z,10.37
2018-08-13T18:30:59.449Z,10.20
2018-08-13T18:33:33.183Z,9.70
2018-08-13T18:36:05.234Z,7.60
2018-08-13T18:38:36.314Z,9.05
2018-08-13T18:41:08.919Z,6.63
2018-08-13T18:43:41.191Z,6.90
2018-08-13T18:46:11.148Z,6.73
2018-08-13T18:48:44.737Z,9.83
2018-08-13T18:51:17.021Z,6.77
2018-08-13T18:53:47.720Z,4.60
2018-08-13T18:56:21.634Z,5.57
2018-08-13T18:58:52.277Z,7.93
2018-08-13T19:01:24.779Z,5.30
2018-08-13T19:03:57.209Z,7.93
2018-08-13T19:06:29.736Z,4.00
2018-08-13T19:08:59.679Z,4.57
2018-08-13T19:11:29.707Z,5.20
2018-08-13T19:14:00.708Z,4.10
2018-08-13T19:16:30.794Z,8.03
2018-08-13T19:19:01.228Z,7.00
2018-08-13T19:21:33.827Z,4.57
2018-08-13T19:24:06.280Z,4.60
2018-08-13T19:26:38.831Z,4.70
2018-08-13T19:29:09.671Z,5.63
2018-08-13T19:31:41.426Z,6.67
2018-08-13T19:34:13.325Z,6.47
2018-08-13T19:36:44.532Z,5.97
2018-08-13T19:39:17.067Z,4.90
2018-08-13T19:41:55.193Z,6.97
2018-08-13T19:44:30.099Z,4.93
2018-08-13T19:47:02.595Z,5.60
2018-08-13T19:49:42.098Z,5.03
2018-08-13T19:52:14.221Z,6.67
2018-08-13T19:54:51.785Z,7.50
2018-08-13T19:57:27.971Z,7.07
2018-08-13T20:00:01.224Z,5.97
2018-08-13T20:02:32.122Z,4.43
2018-08-13T20:05:04.616Z,6.40
2018-08-13T20:07:38.719Z,8.93
2018-08-13T20:10:13.536Z,8.63
2018-08-13T20:12:48.788Z,5.43
2018-08-13T20:15:20.585Z,5.53
2018-08-13T20:17:51.743Z,5.00
2018-08-13T20:20:21.729Z,9.97
2018-08-13T20:22:51.192Z,9.03
2018-08-13T20:25:21.058Z,7.33
2018-08-13T20:27:50.881Z,7.03
2018-08-13T20:30:21.595Z,9.50
2018-08-13T20:32:51.452Z,8.57
2018-08-13T20:35:20.840Z,11.03
2018-08-13T20:37:50.165Z,9.73
2018-08-13T20:40:20.581Z,12.07
2018-08-13T20:42:50.377Z,9.37
2018-08-13T20:45:20.931Z,9.10
2018-08-13T20:47:50.519Z,9.37
2018-08-13T20:50:21.962Z,10.77
2018-08-13T20:52:52.323Z,7.33
2018-08-13T20:55:25.360Z,11.30
2018-08-13T20:57:56.368Z,8.60
2018-08-13T21:00:29.113Z,9.07
2018-08-13T21:02:58.367Z,8.47
2018-08-13T21:05:27.379Z,8.47
2018-08-13T21:07:56.431Z,11.37
2018-08-13T21:10:26.013Z,8.57
2018-08-13T21:12:55.084Z,10.17
2018-08-13T21:15:24.359Z,13.77
2018-08-13T21:17:53.716Z,10.47
2018-08-13T21:20:25.916Z,12.13
2018-08-13T21:22:55.372Z,11.00
2018-08-13T21:25:24.661Z,10.73
2018-08-13T21:27:54.079Z,8.80
2018-08-13T21:30:23.225Z,11.10
2018-08-13T21:32:52.216Z,9.10
2018-08-13T21:35:23.680Z,10.03
2018-08-13T21:37:53.170Z,10.50
2018-08-13T21:40:22.452Z,10.80
2018-08-13T21:42:51.928Z,9.07
2018-08-13T21:45:21.341Z,10.27
2018-08-13T21:47:50.564Z,8.30
2018-08-13T21:50:21.560Z,8.87
2018-08-13T21:52:51.569Z,12.20
2018-08-13T21:55:21.120Z,8.80
2018-08-13T21:57:50.411Z,9.40
2018-08-13T22:01:37.081Z,8.53
2018-08-13T22:04:06.479Z,10.60
2018-08-13T22:06:35.893Z,13.60
2018-08-13T22:09:06.972Z,9.00
2018-08-13T22:11:36.104Z,10.43
2018-08-13T22:14:06.210Z,7.87
2018-08-13T22:16:35.578Z,10.17
2018-08-13T22:19:04.970Z,16.30
2018-08-13T22:21:34.210Z,8.47
2018-08-13T22:24:14.745Z,8.10
2018-08-13T22:26:44.234Z,7.70
2018-08-13T22:29:13.468Z,8.70
2018-08-13T22:31:42.821Z,11.00
2018-08-13T22:34:12.116Z,11.50
2018-08-13T22:36:41.285Z,7.27
2018-08-13T22:39:10.367Z,9.37
2018-08-13T22:41:39.424Z,8.83
2018-08-13T22:44:08.547Z,8.53
2018-08-13T22:46:37.564Z,8.53
2018-08-13T22:49:06.648Z,9.10
2018-08-13T22:51:35.672Z,8.77
2018-08-13T22:54:04.826Z,8.90
2018-08-13T22:56:33.973Z,7.70
2018-08-13T22:59:03.190Z,8.70
2018-08-13T23:01:32.373Z,9.27
2018-08-13T23:04:01.594Z,7.60
2018-08-13T23:06:30.700Z,9.20
2018-08-13T23:09:00.010Z,8.80
2018-08-13T23:11:29.271Z,11.23
2018-08-13T23:13:59.019Z,9.60
2018-08-13T23:16:28.318Z,9.23
2018-08-13T23:18:57.741Z,10.63
2018-08-13T23:21:27.028Z,8.00
2018-08-13T23:23:56.439Z,10.10
2018-08-13T23:26:25.957Z,9.13
2018-08-13T23:28:55.176Z,8.90
2018-08-13T23:31:24.535Z,10.33
2018-08-13T23:33:53.736Z,9.67
2018-08-13T23:36:22.842Z,11.10
2018-08-13T23:38:51.952Z,10.93
2018-08-13T23:41:21.013Z,9.30
2018-08-13T23:43:50.171Z,12.73
2018-08-13T23:46:19.232Z,8.23
2018-08-13T23:48:48.208Z,10.90
2018-08-13T23:51:17.186Z,10.07
2018-08-13T23:53:46.185Z,10.60
2018-08-13T23:56:15.361Z,7.83
2018-08-13T23:58:44.349Z,12.23
